sensor_id;sensor_type;location;lat;lon;timestamp;pressure;altitude;pressure_sealevel;temperature;humidity
80654;BME280;70020;45.524;10.240;2024-01-30T00:01:33;102251.88;;;6.90;58.35
80654;BME280;70020;45.524;10.240;2024-01-30T00:04:00;102250.22;;;6.88;58.15
80654;BME280;70020;45.524;10.240;2024-01-30T00:06:25;102245.09;;;6.86;57.57
80654;BME280;70020;45.524;10.240;2024-01-30T00:08:51;102233.75;;;6.52;59.16
80654;BME280;70020;45.524;10.240;2024-01-30T00:11:17;102245.34;;;6.72;58.11
80654;BME280;70020;45.524;10.240;2024-01-30T00:13:43;102240.09;;;6.78;58.12
80654;BME280;70020;45.524;10.240;2024-01-30T00:16:20;102241.88;;;6.75;59.41
80654;BME280;70020;45.524;10.240;2024-01-30T00:18:46;102241.72;;;6.82;58.58
80654;BME280;70020;45.524;10.240;2024-01-30T00:21:12;102245.09;;;6.86;59.06
80654;BME280;70020;45.524;10.240;2024-01-30T00:23:38;102237.31;;;6.89;59.06
80654;BME280;70020;45.524;10.240;2024-01-30T00:26:03;102235.69;;;6.85;58.36
80654;BME280;70020;45.524;10.240;2024-01-30T00:28:30;102237.31;;;6.89;58.53
80654;BME280;70020;45.524;10.240;2024-01-30T00:30:56;102225.34;;;6.88;58.43
80654;BME280;70020;45.524;10.240;2024-01-30T00:33:21;102229.53;;;6.92;57.63
80654;BME280;70020;45.524;10.240;2024-01-30T00:35:48;102229.72;;;6.83;58.08
80654;BME280;70020;45.524;10.240;2024-01-30T00:38:14;102233.91;;;6.87;57.70
80654;BME280;70020;45.524;10.240;2024-01-30T00:40:39;102225.34;;;6.88;57.60
80654;BME280;70020;45.524;10.240;2024-01-30T00:43:05;102231.53;;;6.78;58.26
80654;BME280;70020;45.524;10.240;2024-01-30T00:45:31;102225.53;;;6.79;58.05
80654;BME280;70020;45.524;10.240;2024-01-30T00:47:57;102231.66;;;6.72;58.21
80654;BME280;70020;45.524;10.240;2024-01-30T00:50:22;102229.09;;;6.72;57.93
80654;BME280;70020;45.524;10.240;2024-01-30T00:52:48;102224.00;;;6.69;57.62
80654;BME280;70020;45.524;10.240;2024-01-30T00:55:13;102234.25;;;6.70;58.22
80654;BME280;70020;45.524;10.240;2024-01-30T00:57:39;102233.41;;;6.70;57.70
80654;BME280;70020;45.524;10.240;2024-01-30T01:00:06;102231.66;;;6.72;57.89
80654;BME280;70020;45.524;10.240;2024-01-30T01:02:34;102221.16;;;6.38;58.65
80654;BME280;70020;45.524;10.240;2024-01-30T01:05:00;102232.50;;;6.27;59.08
80654;BME280;70020;45.524;10.240;2024-01-30T01:07:25;102234.03;;;6.37;59.17
80654;BME280;70020;45.524;10.240;2024-01-30T01:09:51;102233.84;;;6.47;59.15
80654;BME280;70020;45.524;10.240;2024-01-30T01:12:18;102234.63;;;6.51;58.86
80654;BME280;70020;45.524;10.240;2024-01-30T01:14:43;102239.63;;;6.58;58.12
80654;BME280;70020;45.524;10.240;2024-01-30T01:17:09;102242.50;;;6.43;58.57
80654;BME280;70020;45.524;10.240;2024-01-30T01:19:35;102244.22;;;6.41;58.29
80654;BME280;70020;45.524;10.240;2024-01-30T01:22:02;102240.84;;;6.39;58.52
80654;BME280;70020;45.524;10.240;2024-01-30T01:24:31;102239.06;;;6.41;58.57
80654;BME280;70020;45.524;10.240;2024-01-30T01:26:58;102236.59;;;6.37;58.51
80654;BME280;70020;45.524;10.240;2024-01-30T01:29:23;102239.16;;;6.38;58.08
80654;BME280;70020;45.524;10.240;2024-01-30T01:31:57;102231.63;;;6.29;58.45
80654;BME280;70020;45.524;10.240;2024-01-30T01:34:23;102241.84;;;6.31;58.75
80654;BME280;70020;45.524;10.240;2024-01-30T01:36:51;102233.88;;;6.44;58.49
80654;BME280;70020;45.524;10.240;2024-01-30T01:39:20;102240.84;;;6.39;58.97
80654;BME280;70020;45.524;10.240;2024-01-30T01:41:46;102240.88;;;6.38;59.22
80654;BME280;70020;45.524;10.240;2024-01-30T01:44:11;102237.34;;;6.43;58.42
80654;BME280;70020;45.524;10.240;2024-01-30T01:46:37;102229.66;;;6.42;58.33
80654;BME280;70020;45.524;10.240;2024-01-30T01:49:05;102234.19;;;6.29;58.05
80654;BME280;70020;45.524;10.240;2024-01-30T01:51:33;102231.69;;;6.25;58.21
80654;BME280;70020;45.524;10.240;2024-01-30T01:54:02;102232.44;;;6.31;57.99
80654;BME280;70020;45.524;10.240;2024-01-30T01:56:29;102237.00;;;6.14;58.98
80654;BME280;70020;45.524;10.240;2024-01-30T01:59:00;102233.34;;;6.27;58.31
80654;BME280;70020;45.524;10.240;2024-01-30T02:01:26;102236.03;;;6.21;58.24
80654;BME280;70020;45.524;10.240;2024-01-30T02:03:53;102231.78;;;6.18;56.84
80654;BME280;70020;45.524;10.240;2024-01-30T02:06:19;102223.22;;;6.18;58.49
80654;BME280;70020;45.524;10.240;2024-01-30T02:08:45;102224.91;;;6.21;59.02
80654;BME280;70020;45.524;10.240;2024-01-30T02:11:11;102223.00;;;6.32;58.24
80654;BME280;70020;45.524;10.240;2024-01-30T02:13:37;102218.00;;;6.23;58.83
80654;BME280;70020;45.524;10.240;2024-01-30T02:16:03;102214.41;;;6.33;58.95
80654;BME280;70020;45.524;10.240;2024-01-30T02:18:29;102213.63;;;6.29;59.83
80654;BME280;70020;45.524;10.240;2024-01-30T02:20:56;102218.72;;;6.31;58.81
80654;BME280;70020;45.524;10.240;2024-01-30T02:23:27;102215.13;;;6.41;58.69
80654;BME280;70020;45.524;10.240;2024-01-30T02:25:53;102211.88;;;6.31;59.12
80654;BME280;70020;45.524;10.240;2024-01-30T02:28:24;102210.78;;;6.41;59.64
80654;BME280;70020;45.524;10.240;2024-01-30T02:30:49;102214.22;;;6.43;59.26
80654;BME280;70020;45.524;10.240;2024-01-30T02:33:15;102210.78;;;6.41;59.28
80654;BME280;70020;45.524;10.240;2024-01-30T02:35:41;102210.53;;;6.56;58.68
80654;BME280;70020;45.524;10.240;2024-01-30T02:38:10;102215.03;;;6.45;58.70
80654;BME280;70020;45.524;10.240;2024-01-30T02:40:35;102209.03;;;6.45;59.05
80654;BME280;70020;45.524;10.240;2024-01-30T02:43:02;102211.72;;;6.39;58.81
80654;BME280;70020;45.524;10.240;2024-01-30T02:45:28;102209.22;;;6.34;59.05
80654;BME280;70020;45.524;10.240;2024-01-30T02:47:57;102209.25;;;6.33;58.60
80654;BME280;70020;45.524;10.240;2024-01-30T02:50:23;102207.50;;;6.36;58.00
80654;BME280;70020;45.524;10.240;2024-01-30T02:52:48;102210.50;;;6.12;57.99
80654;BME280;70020;45.524;10.240;2024-01-30T02:55:14;102207.19;;;6.05;58.50
80654;BME280;70020;45.524;10.240;2024-01-30T02:57:43;102203.56;;;6.17;57.57
80654;BME280;70020;45.524;10.240;2024-01-30T03:00:10;102204.47;;;6.13;57.57
80654;BME280;70020;45.524;10.240;2024-01-30T03:02:36;102202.66;;;6.18;58.08
80654;BME280;70020;45.524;10.240;2024-01-30T03:05:01;102200.03;;;6.21;58.50
80654;BME280;70020;45.524;10.240;2024-01-30T03:07:31;102207.78;;;6.20;58.81
80654;BME280;70020;45.524;10.240;2024-01-30T03:09:57;102203.47;;;6.22;58.25
80654;BME280;70020;45.524;10.240;2024-01-30T03:12:23;102201.16;;;6.08;58.15
80654;BME280;70020;45.524;10.240;2024-01-30T03:14:49;102205.44;;;6.07;58.61
80654;BME280;70020;45.524;10.240;2024-01-30T03:17:15;102198.63;;;6.05;58.83
80654;BME280;70020;45.524;10.240;2024-01-30T03:19:41;102193.44;;;6.06;58.93
80654;BME280;70020;45.524;10.240;2024-01-30T03:22:07;102202.13;;;5.99;58.87
80654;BME280;70020;45.524;10.240;2024-01-30T03:24:33;102197.94;;;5.95;59.32
80654;BME280;70020;45.524;10.240;2024-01-30T03:26:58;102197.81;;;6.03;58.96
80654;BME280;70020;45.524;10.240;2024-01-30T03:29:28;102197.03;;;5.98;57.73
80654;BME280;70020;45.524;10.240;2024-01-30T03:31:54;102196.22;;;5.94;57.61
80654;BME280;70020;45.524;10.240;2024-01-30T03:34:20;102205.09;;;5.74;57.74
80654;BME280;70020;45.524;10.240;2024-01-30T03:36:47;102201.56;;;5.81;57.75
80654;BME280;70020;45.524;10.240;2024-01-30T03:39:13;102198.09;;;5.83;58.17
80654;BME280;70020;45.524;10.240;2024-01-30T03:41:42;102203.28;;;5.82;58.27
80654;BME280;70020;45.524;10.240;2024-01-30T03:44:08;102211.81;;;5.82;58.49
80654;BME280;70020;45.524;10.240;2024-01-30T03:46:34;102200.72;;;5.82;58.50
80654;BME280;70020;45.524;10.240;2024-01-30T03:48:59;102199.94;;;5.75;58.57
80654;BME280;70020;45.524;10.240;2024-01-30T03:51:26;102211.06;;;5.76;58.82
80654;BME280;70020;45.524;10.240;2024-01-30T03:53:52;102210.94;;;5.85;58.40
80654;BME280;70020;45.524;10.240;2024-01-30T03:56:18;102203.34;;;5.77;58.42
80654;BME280;70020;45.524;10.240;2024-01-30T03:58:43;102210.16;;;5.78;58.23
80654;BME280;70020;45.524;10.240;2024-01-30T04:01:16;102210.97;;;5.80;57.84
80654;BME280;70020;45.524;10.240;2024-01-30T04:03:41;102212.72;;;5.78;57.89
80654;BME280;70020;45.524;10.240;2024-01-30T04:06:09;102214.56;;;5.72;57.66
80654;BME280;70020;45.524;10.240;2024-01-30T04:08:34;102212.88;;;5.69;58.22
80654;BME280;70020;45.524;10.240;2024-01-30T04:11:06;102207.78;;;5.66;58.34
80654;BME280;70020;45.524;10.240;2024-01-30T04:13:33;102206.81;;;5.73;57.86
80654;BME280;70020;45.524;10.240;2024-01-30T04:15:59;102211.94;;;5.75;58.58
80654;BME280;70020;45.524;10.240;2024-01-30T04:18:26;102206.88;;;5.70;58.54
80654;BME280;70020;45.524;10.240;2024-01-30T04:20:52;102210.97;;;5.82;58.04
80654;BME280;70020;45.524;10.240;2024-01-30T04:23:18;102198.13;;;5.82;58.07
80654;BME280;70020;45.524;10.240;2024-01-30T04:25:44;102208.50;;;5.77;57.77
80654;BME280;70020;45.524;10.240;2024-01-30T04:28:10;102202.56;;;5.71;58.57
80654;BME280;70020;45.524;10.240;2024-01-30T04:30:38;102206.88;;;5.70;57.92
80654;BME280;70020;45.524;10.240;2024-01-30T04:33:05;102198.28;;;5.71;58.05
80654;BME280;70020;45.524;10.240;2024-01-30T04:35:31;102196.66;;;5.67;57.36
80654;BME280;70020;45.524;10.240;2024-01-30T04:37:57;102189.63;;;5.78;57.64
80654;BME280;70020;45.524;10.240;2024-01-30T04:40:23;102200.03;;;5.69;57.61
80654;BME280;70020;45.524;10.240;2024-01-30T04:42:48;102195.06;;;5.60;57.61
80654;BME280;70020;45.524;10.240;2024-01-30T04:45:14;102193.28;;;5.64;57.86
80654;BME280;70020;45.524;10.240;2024-01-30T04:47:40;102199.47;;;5.49;58.38
80654;BME280;70020;45.524;10.240;2024-01-30T04:50:07;102200.41;;;5.45;58.57
80654;BME280;70020;45.524;10.240;2024-01-30T04:52:33;102191.75;;;5.54;58.31
80654;BME280;70020;45.524;10.240;2024-01-30T04:54:59;102191.03;;;5.44;58.49
80654;BME280;70020;45.524;10.240;2024-01-30T04:57:24;102190.97;;;5.47;58.53
80654;BME280;70020;45.524;10.240;2024-01-30T04:59:50;102193.56;;;5.45;58.09
80654;BME280;70020;45.524;10.240;2024-01-30T05:02:15;102194.25;;;5.57;58.21
80654;BME280;70020;45.524;10.240;2024-01-30T05:04:42;102191.00;;;5.45;58.27
80654;BME280;70020;45.524;10.240;2024-01-30T05:07:10;102196.13;;;5.45;58.17
80654;BME280;70020;45.524;10.240;2024-01-30T05:09:36;102195.28;;;5.45;57.73
80654;BME280;70020;45.524;10.240;2024-01-30T05:12:02;102202.16;;;5.43;57.25
80654;BME280;70020;45.524;10.240;2024-01-30T05:14:27;102198.06;;;5.31;57.60
80654;BME280;70020;45.524;10.240;2024-01-30T05:16:53;102209.16;;;5.30;58.25
80654;BME280;70020;45.524;10.240;2024-01-30T05:19:19;102201.31;;;5.44;58.14
80654;BME280;70020;45.524;10.240;2024-01-30T05:21:46;102206.50;;;5.38;58.05
80654;BME280;70020;45.524;10.240;2024-01-30T05:24:12;102202.34;;;5.29;58.38
80654;BME280;70020;45.524;10.240;2024-01-30T05:26:37;102195.41;;;5.36;58.11
80654;BME280;70020;45.524;10.240;2024-01-30T05:29:04;102204.81;;;5.35;58.26
80654;BME280;70020;45.524;10.240;2024-01-30T05:31:30;102204.06;;;5.29;58.61
80654;BME280;70020;45.524;10.240;2024-01-30T05:33:56;102207.19;;;5.49;57.79
80654;BME280;70020;45.524;10.240;2024-01-30T05:36:22;102209.00;;;5.42;57.71
80654;BME280;70020;45.524;10.240;2024-01-30T05:38:47;102207.56;;;5.25;57.98
80654;BME280;70020;45.524;10.240;2024-01-30T05:41:13;102205.34;;;4.99;58.66
80654;BME280;70020;45.524;10.240;2024-01-30T05:43:38;102208.47;;;5.19;58.06
80654;BME280;70020;45.524;10.240;2024-01-30T05:46:04;102210.06;;;5.28;58.33
80654;BME280;70020;45.524;10.240;2024-01-30T05:48:33;102211.06;;;5.19;58.79
80654;BME280;70020;45.524;10.240;2024-01-30T05:51:00;102217.84;;;5.22;58.54
80654;BME280;70020;45.524;10.240;2024-01-30T05:53:26;102219.50;;;5.27;58.42
80654;BME280;70020;45.524;10.240;2024-01-30T05:55:53;102215.97;;;5.33;58.31
80654;BME280;70020;45.524;10.240;2024-01-30T05:58:18;102208.44;;;5.21;58.04
80654;BME280;70020;45.524;10.240;2024-01-30T06:00:44;102211.78;;;5.29;58.20
80654;BME280;70020;45.524;10.240;2024-01-30T06:03:10;102215.25;;;5.23;58.10
80654;BME280;70020;45.524;10.240;2024-01-30T06:05:36;102216.88;;;5.30;57.98
80654;BME280;70020;45.524;10.240;2024-01-30T06:08:02;102214.25;;;5.35;57.46
80654;BME280;70020;45.524;10.240;2024-01-30T06:10:27;102216.91;;;5.29;57.53
80654;BME280;70020;45.524;10.240;2024-01-30T06:12:54;102221.16;;;5.31;57.58
80654;BME280;70020;45.524;10.240;2024-01-30T06:15:20;102220.25;;;5.34;57.39
80654;BME280;70020;45.524;10.240;2024-01-30T06:17:46;102212.38;;;5.46;57.18
80654;BME280;70020;45.524;10.240;2024-01-30T06:20:12;102213.22;;;5.48;57.05
80654;BME280;70020;45.524;10.240;2024-01-30T06:22:39;102218.34;;;5.48;57.07
80654;BME280;70020;45.524;10.240;2024-01-30T06:25:05;102218.28;;;5.53;56.61
80654;BME280;70020;45.524;10.240;2024-01-30T06:27:30;102223.06;;;5.74;55.97
80654;BME280;70020;45.524;10.240;2024-01-30T06:29:56;102220.72;;;5.59;56.66
80654;BME280;70020;45.524;10.240;2024-01-30T06:32:22;102217.44;;;5.50;56.85
80654;BME280;70020;45.524;10.240;2024-01-30T06:34:48;102215.75;;;5.51;57.02
80654;BME280;70020;45.524;10.240;2024-01-30T06:37:14;102232.25;;;5.32;57.26
80654;BME280;70020;45.524;10.240;2024-01-30T06:39:40;102218.63;;;5.28;57.63
80654;BME280;70020;45.524;10.240;2024-01-30T06:42:06;102225.41;;;5.34;58.31
80654;BME280;70020;45.524;10.240;2024-01-30T06:44:32;102230.38;;;5.43;57.81
80654;BME280;70020;45.524;10.240;2024-01-30T06:46:57;102224.50;;;5.35;57.83
80654;BME280;70020;45.524;10.240;2024-01-30T06:49:26;102229.59;;;5.38;57.94
80654;BME280;70020;45.524;10.240;2024-01-30T06:51:52;102234.66;;;5.44;57.73
80654;BME280;70020;45.524;10.240;2024-01-30T06:54:18;102238.09;;;5.43;58.29
80654;BME280;70020;45.524;10.240;2024-01-30T06:56:44;102226.97;;;5.44;58.22
80654;BME280;70020;45.524;10.240;2024-01-30T06:59:09;102230.44;;;5.40;57.79
80654;BME280;70020;45.524;10.240;2024-01-30T07:01:35;102233.00;;;5.40;58.25
80654;BME280;70020;45.524;10.240;2024-01-30T07:04:01;102232.16;;;5.38;58.04
80654;BME280;70020;45.524;10.240;2024-01-30T07:06:27;102228.50;;;5.54;58.12
80654;BME280;70020;45.524;10.240;2024-01-30T07:08:53;102224.22;;;5.55;58.00
80654;BME280;70020;45.524;10.240;2024-01-30T07:11:19;102232.78;;;5.55;58.03
80654;BME280;70020;45.524;10.240;2024-01-30T07:13:46;102238.81;;;5.53;58.43
80654;BME280;70020;45.524;10.240;2024-01-30T07:16:12;102232.13;;;5.41;58.37
80654;BME280;70020;45.524;10.240;2024-01-30T07:18:39;102226.22;;;5.36;58.57
80654;BME280;70020;45.524;10.240;2024-01-30T07:21:04;102230.22;;;5.55;57.84
80654;BME280;70020;45.524;10.240;2024-01-30T07:23:30;102230.03;;;5.67;57.57
80654;BME280;70020;45.524;10.240;2024-01-30T07:25:56;102235.97;;;5.71;57.29
80654;BME280;70020;45.524;10.240;2024-01-30T07:28:21;102242.84;;;5.69;57.52
80654;BME280;70020;45.524;10.240;2024-01-30T07:30:47;102240.16;;;5.76;57.22
80654;BME280;70020;45.524;10.240;2024-01-30T07:33:13;102245.19;;;5.82;57.23
80654;BME280;70020;45.524;10.240;2024-01-30T07:35:39;102245.25;;;5.79;57.54
80654;BME280;70020;45.524;10.240;2024-01-30T07:38:05;102248.66;;;5.81;57.58
80654;BME280;70020;45.524;10.240;2024-01-30T07:40:30;102252.88;;;5.85;58.12
80654;BME280;70020;45.524;10.240;2024-01-30T07:42:57;102249.34;;;5.92;58.16
80654;BME280;70020;45.524;10.240;2024-01-30T07:45:22;102249.88;;;6.12;57.29
80654;BME280;70020;45.524;10.240;2024-01-30T07:47:50;102254.19;;;6.10;57.92
80654;BME280;70020;45.524;10.240;2024-01-30T07:50:15;102256.72;;;6.13;58.05
80654;BME280;70020;45.524;10.240;2024-01-30T07:52:42;102251.50;;;6.18;57.47
80654;BME280;70020;45.524;10.240;2024-01-30T07:55:07;102250.53;;;6.24;57.96
80654;BME280;70020;45.524;10.240;2024-01-30T07:57:33;102260.81;;;6.24;57.91
80654;BME280;70020;45.524;10.240;2024-01-30T07:59:59;102256.34;;;6.36;57.38
80654;BME280;70020;45.524;10.240;2024-01-30T08:02:25;102258.81;;;6.41;58.03
80654;BME280;70020;45.524;10.240;2024-01-30T08:04:51;102256.25;;;6.41;57.56
80654;BME280;70020;45.524;10.240;2024-01-30T08:07:17;102259.69;;;6.40;57.85
80654;BME280;70020;45.524;10.240;2024-01-30T08:09:43;102257.75;;;6.51;57.44
80654;BME280;70020;45.524;10.240;2024-01-30T08:12:10;102261.00;;;6.60;57.62
80654;BME280;70020;45.524;10.240;2024-01-30T08:14:36;102265.88;;;6.75;57.31
80654;BME280;70020;45.524;10.240;2024-01-30T08:17:02;102262.28;;;6.84;57.51
80654;BME280;70020;45.524;10.240;2024-01-30T08:19:28;102266.50;;;6.88;57.33
80654;BME280;70020;45.524;10.240;2024-01-30T08:21:56;102273.22;;;6.95;57.56
80654;BME280;70020;45.524;10.240;2024-01-30T08:24:25;102270.50;;;7.03;57.86
80654;BME280;70020;45.524;10.240;2024-01-30T08:26:51;102273.06;;;7.03;57.82
80654;BME280;70020;45.524;10.240;2024-01-30T08:29:16;102272.13;;;7.07;57.87
80654;BME280;70020;45.524;10.240;2024-01-30T08:31:42;102269.88;;;6.90;58.34
80654;BME280;70020;45.524;10.240;2024-01-30T08:34:09;102270.66;;;6.94;58.95
80654;BME280;70020;45.524;10.240;2024-01-30T08:36:36;102275.28;;;7.19;58.03
80654;BME280;70020;45.524;10.240;2024-01-30T08:39:01;102269.00;;;7.32;57.62
80654;BME280;70020;45.524;10.240;2024-01-30T08:41:27;102273.19;;;7.38;57.31
80654;BME280;70020;45.524;10.240;2024-01-30T08:43:53;102274.84;;;7.40;57.00
80654;BME280;70020;45.524;10.240;2024-01-30T08:46:19;102277.22;;;7.49;57.43
80654;BME280;70020;45.524;10.240;2024-01-30T08:48:46;102277.22;;;7.49;57.97
80654;BME280;70020;45.524;10.240;2024-01-30T08:51:11;102272.72;;;7.57;57.89
80654;BME280;70020;45.524;10.240;2024-01-30T08:53:37;102272.66;;;7.61;57.92
80654;BME280;70020;45.524;10.240;2024-01-30T08:56:03;102266.50;;;7.68;58.18
80654;BME280;70020;45.524;10.240;2024-01-30T08:58:30;102274.22;;;7.68;57.73
80654;BME280;70020;45.524;10.240;2024-01-30T09:00:56;102263.88;;;7.69;58.13
80654;BME280;70020;45.524;10.240;2024-01-30T09:03:22;102281.00;;;7.72;58.11
80654;BME280;70020;45.524;10.240;2024-01-30T09:05:47;102279.16;;;7.78;58.62
80654;BME280;70020;45.524;10.240;2024-01-30T09:08:12;102280.59;;;7.90;58.18
80654;BME280;70020;45.524;10.240;2024-01-30T09:10:38;102287.25;;;7.98;57.65
80654;BME280;70020;45.524;10.240;2024-01-30T09:13:07;102294.00;;;8.04;57.40
80654;BME280;70020;45.524;10.240;2024-01-30T09:15:33;102296.47;;;8.08;56.77
80654;BME280;70020;45.524;10.240;2024-01-30T09:17:59;102287.03;;;8.07;56.76
80654;BME280;70020;45.524;10.240;2024-01-30T09:20:26;102285.13;;;8.14;57.21
80654;BME280;70020;45.524;10.240;2024-01-30T09:22:51;102288.28;;;8.27;57.10
80654;BME280;70020;45.524;10.240;2024-01-30T09:25:17;102288.16;;;8.33;56.94
80654;BME280;70020;45.524;10.240;2024-01-30T09:27:44;102286.06;;;8.47;56.68
80654;BME280;70020;45.524;10.240;2024-01-30T09:30:09;102289.66;;;8.41;57.05
80654;BME280;70020;45.524;10.240;2024-01-30T09:32:42;102290.25;;;8.51;56.95
80654;BME280;70020;45.524;10.240;2024-01-30T09:35:08;102289.09;;;8.62;56.95
80654;BME280;70020;45.524;10.240;2024-01-30T09:37:34;102290.63;;;8.69;57.02
80654;BME280;70020;45.524;10.240;2024-01-30T09:40:00;102289.50;;;8.79;56.77
80654;BME280;70020;45.524;10.240;2024-01-30T09:44:54;102289.97;;;8.92;56.42
80654;BME280;70020;45.524;10.240;2024-01-30T09:47:20;102294.06;;;9.01;56.01
80654;BME280;70020;45.524;10.240;2024-01-30T09:49:46;102298.44;;;8.97;55.71
80654;BME280;70020;45.524;10.240;2024-01-30T09:52:12;102295.50;;;9.11;55.45
80654;BME280;70020;45.524;10.240;2024-01-30T09:54:38;102297.06;;;9.16;54.85
80654;BME280;70020;45.524;10.240;2024-01-30T09:57:05;102299.50;;;9.21;54.27
80654;BME280;70020;45.524;10.240;2024-01-30T09:59:31;102295.13;;;9.23;54.49
80654;BME280;70020;45.524;10.240;2024-01-30T10:01:57;102296.53;;;9.34;53.97
80654;BME280;70020;45.524;10.240;2024-01-30T10:04:23;102294.53;;;9.44;54.95
80654;BME280;70020;45.524;10.240;2024-01-30T10:06:50;102301.28;;;9.48;54.53
80654;BME280;70020;45.524;10.240;2024-01-30T10:09:16;102298.56;;;9.52;54.31
80654;BME280;70020;45.524;10.240;2024-01-30T10:11:42;102291.56;;;9.56;55.22
80654;BME280;70020;45.524;10.240;2024-01-30T10:14:07;102290.69;;;9.57;54.95
80654;BME280;70020;45.524;10.240;2024-01-30T10:16:34;102290.31;;;9.69;54.88
80654;BME280;70020;45.524;10.240;2024-01-30T10:19:00;102293.47;;;9.77;54.52
80654;BME280;70020;45.524;10.240;2024-01-30T10:21:26;102285.47;;;9.86;54.54
80654;BME280;70020;45.524;10.240;2024-01-30T10:23:52;102288.94;;;9.85;55.37
80654;BME280;70020;45.524;10.240;2024-01-30T10:26:18;102295.84;;;9.85;55.48
80654;BME280;70020;45.524;10.240;2024-01-30T10:28:44;102286.75;;;9.99;54.84
80654;BME280;70020;45.524;10.240;2024-01-30T10:31:09;102286.81;;;9.98;55.17
80654;BME280;70020;45.524;10.240;2024-01-30T10:33:35;102287.25;;;10.10;54.72
80654;BME280;70020;45.524;10.240;2024-01-30T10:36:03;102280.72;;;10.27;54.56
80654;BME280;70020;45.524;10.240;2024-01-30T10:38:30;102273.53;;;10.35;53.60
80654;BME280;70020;45.524;10.240;2024-01-30T10:41:00;102277.84;;;10.36;53.35
80654;BME280;70020;45.524;10.240;2024-01-30T10:43:31;102274.28;;;10.38;53.62
80654;BME280;70020;45.524;10.240;2024-01-30T10:46:06;102274.47;;;10.34;53.85
80654;BME280;70020;45.524;10.240;2024-01-30T10:48:36;102274.22;;;10.15;53.15
80654;BME280;70020;45.524;10.240;2024-01-30T10:51:08;102271.75;;;10.37;53.40
80654;BME280;70020;45.524;10.240;2024-01-30T10:53:35;102268.75;;;10.49;53.38
80654;BME280;70020;45.524;10.240;2024-01-30T10:56:03;102262.50;;;10.54;53.06
80654;BME280;70020;45.524;10.240;2024-01-30T10:58:30;102259.81;;;10.57;53.36
80654;BME280;70020;45.524;10.240;2024-01-30T11:00:56;102248.91;;;10.72;53.00
80654;BME280;70020;45.524;10.240;2024-01-30T11:03:23;102255.28;;;10.87;52.44
80654;BME280;70020;45.524;10.240;2024-01-30T11:05:52;102249.34;;;10.85;52.94
80654;BME280;70020;45.524;10.240;2024-01-30T11:08:24;102244.09;;;10.86;52.76
80654;BME280;70020;45.524;10.240;2024-01-30T11:10:55;102241.91;;;10.99;51.66
80654;BME280;70020;45.524;10.240;2024-01-30T11:13:21;102245.94;;;11.06;52.14
80654;BME280;70020;45.524;10.240;2024-01-30T11:15:48;102240.16;;;11.00;51.86
80654;BME280;70020;45.524;10.240;2024-01-30T11:18:24;102235.94;;;10.97;52.24
80654;BME280;70020;45.524;10.240;2024-01-30T11:20:49;102239.88;;;11.07;52.31
80654;BME280;70020;45.524;10.240;2024-01-30T11:23:15;102240.78;;;11.06;51.88
80654;BME280;70020;45.524;10.240;2024-01-30T11:25:41;102230.66;;;11.00;52.09
80654;BME280;70020;45.524;10.240;2024-01-30T11:28:15;102225.63;;;11.19;52.18
80654;BME280;70020;45.524;10.240;2024-01-30T11:30:41;102225.06;;;11.11;51.64
80654;BME280;70020;45.524;10.240;2024-01-30T11:33:09;102215.75;;;11.05;51.67
80654;BME280;70020;45.524;10.240;2024-01-30T11:35:38;102222.00;;;11.23;51.55
80654;BME280;70020;45.524;10.240;2024-01-30T11:38:05;102209.34;;;11.37;51.25
80654;BME280;70020;45.524;10.240;2024-01-30T11:40:31;102205.81;;;11.39;51.56
80654;BME280;70020;45.524;10.240;2024-01-30T11:42:59;102192.59;;;11.45;50.77
80654;BME280;70020;45.524;10.240;2024-01-30T11:45:28;102196.13;;;11.64;50.69
80654;BME280;70020;45.524;10.240;2024-01-30T11:47:55;102194.13;;;11.73;50.09
80654;BME280;70020;45.524;10.240;2024-01-30T11:50:20;102182.91;;;11.72;49.64
80654;BME280;70020;45.524;10.240;2024-01-30T11:52:47;102180.97;;;11.77;49.55
80654;BME280;70020;45.524;10.240;2024-01-30T11:55:14;102182.13;;;11.70;48.46
80654;BME280;70020;45.524;10.240;2024-01-30T11:57:40;102175.91;;;11.74;48.17
80654;BME280;70020;45.524;10.240;2024-01-30T12:00:06;102163.81;;;11.95;48.57
80654;BME280;70020;45.524;10.240;2024-01-30T12:02:40;102165.72;;;12.10;47.29
80654;BME280;70020;45.524;10.240;2024-01-30T12:05:06;102160.41;;;12.13;46.15
80654;BME280;70020;45.524;10.240;2024-01-30T12:07:32;102154.84;;;12.22;46.36
80654;BME280;70020;45.524;10.240;2024-01-30T12:09:59;102143.06;;;12.34;46.41
80654;BME280;70020;45.524;10.240;2024-01-30T12:12:28;102146.00;;;12.26;46.42
80654;BME280;70020;45.524;10.240;2024-01-30T12:14:55;102137.19;;;12.30;45.78
80654;BME280;70020;45.524;10.240;2024-01-30T12:19:50;102133.56;;;12.53;44.88
80654;BME280;70020;45.524;10.240;2024-01-30T12:22:15;102122.81;;;12.60;44.49
80654;BME280;70020;45.524;10.240;2024-01-30T12:24:41;102120.69;;;12.68;45.12
80654;BME280;70020;45.524;10.240;2024-01-30T12:27:07;102113.31;;;12.78;45.49
80654;BME280;70020;45.524;10.240;2024-01-30T12:29:33;102104.72;;;12.77;46.14
80654;BME280;70020;45.524;10.240;2024-01-30T12:31:59;102103.03;;;12.76;45.23
80654;BME280;70020;45.524;10.240;2024-01-30T12:34:25;102099.72;;;12.91;45.86
80654;BME280;70020;45.524;10.240;2024-01-30T12:36:51;102091.16;;;12.89;45.48
80654;BME280;70020;45.524;10.240;2024-01-30T12:39:17;102093.44;;;12.95;45.49
80654;BME280;70020;45.524;10.240;2024-01-30T12:41:43;102083.28;;;13.10;45.54
80654;BME280;70020;45.524;10.240;2024-01-30T12:44:09;102081.44;;;12.93;46.65
80654;BME280;70020;45.524;10.240;2024-01-30T12:46:35;102074.72;;;13.08;46.28
80654;BME280;70020;45.524;10.240;2024-01-30T12:49:00;102073.13;;;13.22;46.51